Time;durP1;ratioP1;P1;durP2;ratioP2;P2;SDS_P1;SDS_P2;PMS_P1;PMS_P2;Temp;Humidity;BMP_temperature;BMP_pressure;BME280_temperature;BME280_humidity;BME280_pressure;Samples;Min_cycle;Max_cycle;Signal;HPM_P1;HPM_P2
2023/09/18 00:00:21;;;;;;;;;2.50;2.50;;;;;20.31;82.92;99937.13;5059470;28;47948;-84
2023/09/18 00:02:47;;;;;;;;;4.50;3.00;;;;;20.18;83.81;99928.63;5059077;28;45450;-82
2023/09/18 00:05:14;;;;;;;;;3.67;3.67;;;;;20.21;84.57;99954.44;5058805;28;45398;-83
2023/09/18 00:07:39;;;;;;;;;4.00;4.00;;;;;20.11;85.37;99959.97;5058860;28;45315;-79
2023/09/18 00:10:05;;;;;;;;;8.67;4.33;;;;;20.12;85.97;99972.47;5059488;28;45230;-80
2023/09/18 00:12:30;;;;;;;;;7.00;7.00;;;;;19.81;87.28;99942.47;5058480;28;46377;-81
2023/09/18 00:14:55;;;;;;;;;10.33;6.67;;;;;19.78;87.63;99937.38;5057465;28;64583;-81
2023/09/18 00:17:22;;;;;;;;;8.67;5.33;;;;;19.92;87.60;99971.88;5058654;28;45390;-83
2023/09/18 00:19:48;;;;;;;;;7.67;6.00;;;;;19.96;88.24;99962.44;5058803;28;45520;-82
2023/09/18 00:22:13;;;;;;;;;8.00;8.00;;;;;19.91;87.71;99962.06;5058478;28;45537;-82
2023/09/18 00:24:38;;;;;;;;;6.67;6.67;;;;;19.90;88.17;99956.84;5058390;28;45287;-84
2023/09/18 00:27:04;;;;;;;;;6.00;6.00;;;;;19.83;87.47;99951.25;5058972;28;50351;-81
2023/09/18 00:29:29;;;;;;;;;6.33;5.00;;;;;19.51;87.60;99903.31;5059276;28;45185;-84
2023/09/18 00:31:54;;;;;;;;;1.00;1.00;;;;;19.78;87.73;99947.31;5058073;28;45444;-86
2023/09/18 00:34:19;;;;;;;;;6.33;3.67;;;;;19.78;88.06;99952.72;5058006;28;54356;-81
2023/09/18 00:36:45;;;;;;;;;2.33;2.33;;;;;19.59;87.86;99934.94;5059066;28;63312;-83
2023/09/18 00:39:10;;;;;;;;;3.33;3.33;;;;;19.57;88.09;99942.34;5058973;28;60548;-81
2023/09/18 00:41:36;;;;;;;;;4.67;3.00;;;;;19.71;87.44;99957.94;5058333;28;47413;-80
2023/09/18 00:44:01;;;;;;;;;3.00;2.00;;;;;19.64;87.24;99954.16;5059435;28;45301;-83
2023/09/18 00:46:27;;;;;;;;;3.67;2.33;;;;;19.45;87.29;99930.94;5058993;28;45457;-82
2023/09/18 00:48:53;;;;;;;;;3.67;2.00;;;;;19.36;87.41;99932.72;5059065;28;45457;-82
2023/09/18 00:51:19;;;;;;;;;5.00;3.33;;;;;19.35;87.16;99930.19;5058862;28;46366;-82
2023/09/18 00:53:47;;;;;;;;;4.00;2.33;;;;;19.39;87.33;99953.97;5058818;28;45344;-83
2023/09/18 00:56:13;;;;;;;;;2.33;2.33;;;;;19.29;87.56;99949.72;5059283;28;45287;-84
2023/09/18 00:58:38;;;;;;;;;1.00;1.00;;;;;19.20;87.30;99943.41;5058599;28;49623;-86
2023/09/18 01:01:04;;;;;;;;;3.33;2.00;;;;;19.35;87.33;99971.47;5058299;28;48501;-86
2023/09/18 01:03:30;;;;;;;;;2.00;2.00;;;;;19.34;87.48;99963.56;5058725;28;55246;-84
2023/09/18 01:05:55;;;;;;;;;2.33;2.33;;;;;19.34;86.63;99956.31;5059322;28;45777;-84
2023/09/18 01:08:20;;;;;;;;;3.33;2.33;;;;;19.30;86.71;99952.25;5065890;28;45445;-83
2023/09/18 01:10:48;;;;;;;;;6.00;4.00;;;;;19.46;85.80;99970.38;5062208;28;47248;-83
2023/09/18 01:13:17;;;;;;;;;4.00;3.00;;;;;19.37;85.13;99961.38;5057248;28;45406;-82
2023/09/18 01:15:56;;;;;;;;;3.00;3.00;;;;;19.42;85.46;99958.22;5037950;28;45230;-85
2023/09/18 01:18:21;;;;;;;;;2.00;2.00;;;;;19.28;85.39;99951.56;5051670;28;45390;-84
2023/09/18 01:20:46;;;;;;;;;2.67;2.67;;;;;19.36;85.02;99965.06;5057651;28;45480;-84
2023/09/18 01:23:12;;;;;;;;;2.00;2.00;;;;;19.22;84.93;99918.97;5057343;28;46615;-81
2023/09/18 01:25:37;;;;;;;;;3.00;1.67;;;;;19.32;84.13;99934.06;5058140;28;45484;-85
2023/09/18 01:28:03;;;;;;;;;3.33;3.33;;;;;19.41;84.08;99951.16;5057061;28;45417;-83
2023/09/18 01:30:29;;;;;;;;;2.33;2.33;;;;;19.31;83.89;99945.84;5058094;28;45639;-84
2023/09/18 01:32:56;;;;;;;;;1.33;1.33;;;;;19.42;83.71;99956.38;5057357;28;45473;-82
2023/09/18 01:35:28;;;;;;;;;2.00;0.00;;;;;19.43;83.20;99955.38;5057724;28;45385;-81
2023/09/18 01:37:59;;;;;;;;;1.67;1.33;;;;;19.40;83.20;99953.00;5057355;28;45590;-81
2023/09/18 01:40:25;;;;;;;;;1.00;1.00;;;;;19.42;83.02;99953.69;5057438;28;45447;-81
2023/09/18 01:42:50;;;;;;;;;1.00;1.00;;;;;19.10;82.85;99907.59;5056636;28;45502;-84
2023/09/18 01:45:16;;;;;;;;;1.00;1.00;;;;;19.44;82.71;99962.44;5057509;28;45663;-83
2023/09/18 01:47:41;;;;;;;;;2.00;2.00;;;;;19.45;82.54;99956.06;5055872;28;53045;-84
2023/09/18 01:50:07;;;;;;;;;2.67;1.67;;;;;19.27;82.45;99911.25;5056147;28;74089;-81
2023/09/18 01:52:34;;;;;;;;;1.00;1.00;;;;;19.42;82.22;99940.19;5057173;28;45506;-81
2023/09/18 01:54:59;;;;;;;;;2.33;0.67;;;;;19.49;82.03;99944.94;5058380;28;45247;-81
2023/09/18 01:57:25;;;;;;;;;2.33;2.33;;;;;19.49;82.36;99947.63;5058830;28;45539;-81
2023/09/18 01:59:53;;;;;;;;;1.00;1.00;;;;;19.47;82.11;99945.09;5057175;28;47038;-81
2023/09/18 02:02:18;;;;;;;;;2.67;2.00;;;;;19.47;82.18;99944.25;5062317;28;45468;-83
2023/09/18 02:04:45;;;;;;;;;3.67;2.00;;;;;19.36;82.22;99927.34;5065563;28;45462;-82
2023/09/18 02:07:10;;;;;;;;;1.00;1.00;;;;;19.33;82.19;99933.03;5062319;28;45436;-84
2023/09/18 02:09:35;;;;;;;;;1.00;1.00;;;;;19.44;82.58;99948.97;5066384;28;45426;-83
2023/09/18 02:12:01;;;;;;;;;1.00;1.00;;;;;19.32;82.94;99928.66;5066623;28;50359;-84
2023/09/18 02:14:26;;;;;;;;;0.67;0.67;;;;;19.43;82.74;99949.97;5065112;28;45423;-83
2023/09/18 02:16:51;;;;;;;;;1.00;1.00;;;;;19.35;82.80;99944.50;5059605;28;45592;-81
2023/09/18 02:19:18;;;;;;;;;1.00;0.67;;;;;19.39;82.60;99953.97;5058571;28;45448;-86
2023/09/18 02:21:43;;;;;;;;;2.00;2.00;;;;;19.37;83.21;99955.97;5058659;28;45392;-84
2023/09/18 02:24:09;;;;;;;;;3.00;2.00;;;;;19.28;83.29;99946.16;5055326;28;45576;-81
2023/09/18 02:26:34;;;;;;;;;3.00;1.67;;;;;19.26;83.48;99958.09;5056863;28;45309;-80
2023/09/18 02:29:03;;;;;;;;;2.00;2.00;;;;;19.24;83.63;99954.69;5056757;28;47067;-80
2023/09/18 02:31:29;;;;;;;;;3.00;3.00;;;;;19.25;83.90;99959.94;5054922;28;45381;-82
2023/09/18 02:33:54;;;;;;;;;3.00;2.00;;;;;19.26;84.17;99964.31;5055038;28;65502;-81
2023/09/18 02:36:19;;;;;;;;;2.33;2.00;;;;;19.21;84.21;99963.97;5056465;28;45298;-82
2023/09/18 02:38:45;;;;;;;;;2.67;2.67;;;;;18.92;84.79;99929.19;5056490;28;45461;-82
2023/09/18 02:41:10;;;;;;;;;1.33;1.00;;;;;19.02;84.87;99947.97;5055418;28;65470;-81
2023/09/18 02:43:37;;;;;;;;;3.33;2.00;;;;;19.09;84.98;99960.66;5051282;28;45485;-82
2023/09/18 02:46:04;;;;;;;;;4.00;3.00;;;;;19.04;85.27;99956.75;5036457;28;45460;-79
2023/09/18 02:48:29;;;;;;;;;2.33;2.00;;;;;19.07;85.50;99969.91;5036111;28;46027;-82
2023/09/18 02:50:54;;;;;;;;;1.67;1.67;;;;;19.05;85.49;99967.38;5040145;28;65518;-80
2023/09/18 02:53:21;;;;;;;;;2.33;2.33;;;;;19.02;85.29;99966.84;5054531;28;45367;-86
2023/09/18 02:55:49;;;;;;;;;2.00;2.00;;;;;18.89;86.22;99955.63;5056683;28;45475;-82
2023/09/18 02:58:14;;;;;;;;;3.33;3.00;;;;;18.90;85.90;99966.22;5056639;28;46229;-86
2023/09/18 03:00:43;;;;;;;;;4.67;3.00;;;;;18.82;86.12;99956.22;5056323;28;45399;-84
2023/09/18 03:03:10;;;;;;;;;2.33;2.33;;;;;18.85;85.81;99955.91;5056073;28;45328;-83
2023/09/18 03:05:35;;;;;;;;;2.67;2.00;;;;;18.84;85.89;99951.50;5056500;28;45448;-80
2023/09/18 03:08:00;;;;;;;;;3.00;3.00;;;;;18.69;86.63;99939.59;5056325;28;46133;-83
2023/09/18 03:10:26;;;;;;;;;2.67;2.67;;;;;18.69;86.43;99938.75;5056340;28;45342;-86
2023/09/18 03:12:51;;;;;;;;;4.67;3.00;;;;;18.76;86.85;99945.22;5055963;28;45239;-85
2023/09/18 03:15:16;;;;;;;;;4.00;4.00;;;;;18.72;86.75;99950.06;5056747;28;45418;-85
2023/09/18 03:17:42;;;;;;;;;3.67;3.67;;;;;18.72;86.75;99949.22;5056097;28;45220;-84
2023/09/18 03:20:08;;;;;;;;;5.67;4.00;;;;;18.49;86.58;99903.88;5059018;28;45227;-82
2023/09/18 03:22:34;;;;;;;;;4.67;4.00;;;;;18.57;87.10;99921.94;5058873;28;45454;-82
2023/09/18 03:24:59;;;;;;;;;2.67;2.67;;;;;18.70;87.10;99941.28;5059151;28;45597;-83
2023/09/18 03:27:28;;;;;;;;;3.33;2.00;;;;;18.68;87.03;99932.50;5058866;28;58613;-80
2023/09/18 03:29:54;;;;;;;;;3.00;2.67;;;;;18.72;87.22;99933.88;5059136;28;45412;-82
2023/09/18 03:32:19;;;;;;;;;2.33;2.33;;;;;18.72;86.95;99923.13;5059587;28;45476;-81
2023/09/18 03:34:45;;;;;;;;;3.00;2.00;;;;;18.72;86.89;99939.28;5059798;28;45461;-81
2023/09/18 03:37:10;;;;;;;;;4.33;3.00;;;;;18.71;86.97;99932.19;5059216;27;46083;-81
2023/09/18 03:39:35;;;;;;;;;3.00;3.00;;;;;18.71;87.12;99932.19;5059571;28;49424;-81
2023/09/18 03:42:01;;;;;;;;;2.00;2.00;;;;;18.60;86.96;99913.53;5057980;28;45804;-82
2023/09/18 03:44:26;;;;;;;;;3.67;3.67;;;;;18.65;87.13;99921.22;5058617;28;57261;-81
2023/09/18 03:46:51;;;;;;;;;3.00;3.00;;;;;18.61;86.60;99915.22;5059372;28;45805;-80
2023/09/18 03:49:17;;;;;;;;;4.00;2.67;;;;;18.62;86.94;99922.34;5058649;28;64470;-80
2023/09/18 03:51:43;;;;;;;;;5.33;4.67;;;;;18.66;87.20;99945.28;5058868;28;46235;-81
2023/09/18 03:54:08;;;;;;;;;6.00;4.33;;;;;18.50;87.24;99902.03;5059177;28;45548;-81
2023/09/18 03:56:33;;;;;;;;;4.33;4.00;;;;;18.54;87.31;99911.47;5058788;28;45406;-82
2023/09/18 03:59:00;;;;;;;;;2.00;2.00;;;;;18.51;87.13;99898.31;5059364;28;59968;-80
2023/09/18 04:01:26;;;;;;;;;5.00;3.33;;;;;18.71;87.01;99932.19;5059428;27;45379;-81
2023/09/18 04:03:53;;;;;;;;;4.33;3.00;;;;;18.72;87.02;99928.50;5057973;28;45561;-80
2023/09/18 04:06:20;;;;;;;;;4.00;4.00;;;;;18.73;86.75;99919.41;5059498;28;46063;-81
2023/09/18 04:08:45;;;;;;;;;5.67;4.00;;;;;18.67;86.94;99911.97;5059653;28;45395;-80
2023/09/18 04:11:11;;;;;;;;;3.67;3.67;;;;;18.71;87.12;99915.19;5058752;28;65276;-82
2023/09/18 04:13:37;;;;;;;;;4.67;3.00;;;;;18.68;87.25;99910.97;5059732;28;45321;-82
2023/09/18 04:16:03;;;;;;;;;2.67;2.67;;;;;18.62;86.82;99900.78;5061409;28;45279;-83
2023/09/18 04:18:29;;;;;;;;;5.33;4.00;;;;;18.70;86.69;99917.03;5063995;28;45254;-82
2023/09/18 04:20:54;;;;;;;;;3.00;3.00;;;;;18.66;86.02;99915.66;5061367;28;45675;-82
2023/09/18 04:23:24;;;;;;;;;5.67;4.67;;;;;18.78;86.73;99929.75;5061252;28;45614;-81
2023/09/18 04:25:51;;;;;;;;;4.00;4.00;;;;;18.76;86.83;99935.28;5059093;28;45373;-81
2023/09/18 04:28:21;;;;;;;;;6.00;3.00;;;;;18.74;86.80;99920.25;5058406;28;45349;-81
2023/09/18 04:30:46;;;;;;;;;2.67;2.67;;;;;18.70;87.21;99925.13;5058086;28;45412;-81
2023/09/18 04:33:13;;;;;;;;;5.00;5.00;;;;;18.69;87.10;99930.66;5058714;28;45389;-79
2023/09/18 04:35:39;;;;;;;;;3.00;3.00;;;;;18.68;87.36;99927.13;5058601;28;45440;-83
2023/09/18 04:38:06;;;;;;;;;4.00;4.00;;;;;18.66;87.47;99926.44;5058736;28;45465;-82
2023/09/18 04:40:32;;;;;;;;;6.33;4.00;;;;;18.54;87.10;99916.84;5059041;28;45350;-83
2023/09/18 04:43:01;;;;;;;;;2.67;2.67;;;;;18.64;87.43;99925.75;5058805;28;45269;-81
2023/09/18 04:45:26;;;;;;;;;4.00;3.00;;;;;18.66;86.95;99918.34;5058817;28;45996;-84
2023/09/18 04:47:52;;;;;;;;;5.00;3.67;;;;;18.70;86.86;99921.59;5058964;28;54229;-82
2023/09/18 04:50:18;;;;;;;;;4.00;4.00;;;;;18.72;86.96;99920.41;5059006;28;45406;-84
2023/09/18 04:52:43;;;;;;;;;3.33;3.33;;;;;18.70;86.77;99913.50;5059264;28;45369;-84
2023/09/18 04:55:10;;;;;;;;;3.00;2.00;;;;;18.69;86.50;99926.13;5058607;28;45487;-83
2023/09/18 04:57:35;;;;;;;;;6.00;5.00;;;;;18.68;86.94;99932.50;5058823;28;45465;-84
2023/09/18 05:00:02;;;;;;;;;5.67;3.00;;;;;18.62;86.78;99916.94;5058626;28;45197;-82
2023/09/18 05:02:27;;;;;;;;;6.00;4.00;;;;;18.44;87.00;99902.63;5038732;28;45628;-80
2023/09/18 05:04:55;;;;;;;;;5.67;5.00;;;;;18.64;86.96;99936.53;5054437;28;45904;-84
2023/09/18 05:07:20;;;;;;;;;5.67;4.33;;;;;18.51;86.69;99909.09;5058604;28;45410;-83
2023/09/18 05:09:46;;;;;;;;;5.33;5.33;;;;;18.51;86.38;99906.41;5059841;28;45329;-84
2023/09/18 05:12:13;;;;;;;;;5.00;4.00;;;;;18.58;86.41;99915.53;5058002;28;45631;-82
2023/09/18 05:14:42;;;;;;;;;5.67;4.00;;;;;18.58;86.62;99912.84;5057746;28;45644;-82
2023/09/18 05:17:14;;;;;;;;;3.00;3.00;;;;;18.62;86.71;99919.66;5057691;28;45446;-81
2023/09/18 05:19:40;;;;;;;;;6.00;5.00;;;;;18.52;86.93;99910.78;5057938;28;45640;-84
2023/09/18 05:22:06;;;;;;;;;4.00;4.00;;;;;18.63;86.98;99929.41;5057871;28;45492;-83
2023/09/18 05:24:31;;;;;;;;;6.67;6.00;;;;;18.68;86.92;99923.59;5056383;28;45487;-82
2023/09/18 05:26:57;;;;;;;;;3.67;3.67;;;;;18.75;86.67;99932.72;5057040;28;45494;-80
2023/09/18 05:29:22;;;;;;;;;4.33;4.00;;;;;18.48;86.50;99869.00;5057776;28;45335;-84
2023/09/18 05:31:47;;;;;;;;;5.00;4.00;;;;;18.81;86.03;99924.88;5058344;28;45756;-84
2023/09/18 05:34:13;;;;;;;;;6.00;4.00;;;;;18.84;85.77;99940.75;5057275;28;45321;-81
2023/09/18 05:36:39;;;;;;;;;7.00;5.67;;;;;18.91;85.65;99937.44;5057489;28;45239;-83
2023/09/18 05:39:09;;;;;;;;;7.00;6.00;;;;;18.98;85.38;99949.28;5060826;28;45341;-82
2023/09/18 05:41:35;;;;;;;;;4.00;4.00;;;;;18.73;84.87;99892.47;5059673;28;45388;-85
2023/09/18 05:44:03;;;;;;;;;7.00;6.00;;;;;19.05;84.52;99928.78;5057749;28;45662;-83
2023/09/18 05:46:29;;;;;;;;;5.33;4.33;;;;;18.95;84.70;99906.47;5074985;28;45455;-79
2023/09/18 05:48:56;;;;;;;;;6.00;6.00;;;;;19.06;84.47;99925.94;5055785;28;45271;-80
2023/09/18 05:51:22;;;;;;;;;7.67;6.00;;;;;19.05;84.23;99918.88;5069360;28;45508;-83
2023/09/18 05:53:48;;;;;;;;;6.00;6.00;;;;;19.21;84.36;99938.84;5058619;28;45555;-81
2023/09/18 05:56:14;;;;;;;;;7.00;5.00;;;;;19.02;84.07;99907.56;5056165;28;45314;-81
2023/09/18 05:58:39;;;;;;;;;7.00;7.00;;;;;19.21;83.86;99942.41;5056371;28;45419;-80
2023/09/18 06:01:07;;;;;;;;;5.33;4.33;;;;;19.19;83.66;99930.09;5054028;28;45390;-83
2023/09/18 06:03:35;;;;;;;;;7.67;5.00;;;;;19.24;83.56;99935.84;5059608;28;45641;-80
2023/09/18 06:06:01;;;;;;;;;7.67;7.00;;;;;19.34;83.23;99950.91;5057928;28;45294;-83
2023/09/18 06:08:26;;;;;;;;;7.67;7.67;;;;;19.28;83.08;99946.16;5059053;28;45318;-80
2023/09/18 06:10:52;;;;;;;;;6.67;6.67;;;;;19.50;82.96;99965.50;5058478;28;45400;-80
2023/09/18 06:13:17;;;;;;;;;7.00;7.00;;;;;19.39;82.90;99943.19;5061693;28;45529;-81
2023/09/18 06:15:43;;;;;;;;;5.67;5.33;;;;;19.54;82.91;99972.28;5061024;27;45337;-82
2023/09/18 06:18:08;;;;;;;;;9.67;6.00;;;;;19.51;82.81;99972.59;5064877;28;45324;-83
2023/09/18 06:20:33;;;;;;;;;6.00;6.00;;;;;19.44;82.68;99957.06;5060585;28;45457;-81
2023/09/18 06:22:59;;;;;;;;;11.33;7.00;;;;;19.36;82.35;99932.72;5058960;28;45330;-80
2023/09/18 06:25:24;;;;;;;;;4.67;3.67;;;;;19.60;81.97;99971.69;5055460;28;45381;-80
2023/09/18 06:27:50;;;;;;;;;8.67;6.67;;;;;19.68;82.02;99971.75;5041540;28;45456;-81
2023/09/18 06:30:16;;;;;;;;;10.33;8.00;;;;;19.52;81.66;99958.09;5038470;28;45224;-81
2023/09/18 06:32:41;;;;;;;;;11.00;9.33;;;;;19.71;81.56;99982.22;5036871;28;45832;-82
2023/09/18 06:35:08;;;;;;;;;10.00;8.67;;;;;19.69;81.45;99965.34;5036995;28;45234;-84
2023/09/18 06:37:33;;;;;;;;;6.33;6.33;;;;;19.74;81.25;99973.78;5037420;28;45358;-83
2023/09/18 06:39:59;;;;;;;;;7.00;7.00;;;;;19.70;80.83;99967.03;5051185;28;45465;-80
2023/09/18 06:42:24;;;;;;;;;8.00;7.00;;;;;19.68;81.11;99964.50;5060876;28;46227;-83
2023/09/18 06:44:49;;;;;;;;;9.00;9.00;;;;;19.76;81.11;99971.78;5060905;28;45282;-82
2023/09/18 06:47:15;;;;;;;;;13.67;10.33;;;;;19.83;80.97;99972.84;5062786;28;63304;-81
2023/09/18 06:49:41;;;;;;;;;9.00;6.00;;;;;19.79;80.63;99965.19;5065409;28;45243;-81
2023/09/18 06:52:07;;;;;;;;;8.33;6.33;;;;;19.90;80.53;99983.81;5065713;28;45531;-80
2023/09/18 06:54:33;;;;;;;;;8.33;8.33;;;;;19.91;80.54;99982.81;5065138;28;45465;-83
2023/09/18 06:56:58;;;;;;;;;8.67;8.67;;;;;19.97;80.20;99974.94;5060158;28;45442;-84
2023/09/18 06:59:24;;;;;;;;;10.67;7.67;;;;;20.00;80.24;99971.91;5064603;28;45377;-84
2023/09/18 07:01:49;;;;;;;;;7.67;7.67;;;;;20.06;79.79;99969.59;5059163;28;46095;-83
2023/09/18 07:04:14;;;;;;;;;8.67;6.67;;;;;20.11;79.62;99964.53;5075790;28;51724;-84
2023/09/18 07:06:40;;;;;;;;;12.33;11.00;;;;;20.31;79.10;99982.16;5039606;28;46447;-82
2023/09/18 07:09:06;;;;;;;;;6.67;6.67;;;;;20.32;78.46;99973.06;5055797;28;45651;-82
2023/09/18 07:11:35;;;;;;;;;10.67;9.00;;;;;20.43;77.93;99977.31;5054978;28;47113;-81
2023/09/18 07:14:02;;;;;;;;;9.33;8.33;;;;;20.61;77.46;99992.41;5047929;28;45367;-83
2023/09/18 07:16:27;;;;;;;;;9.67;9.67;;;;;20.58;76.84;99979.25;5036579;28;45366;-83
2023/09/18 07:18:53;;;;;;;;;11.33;11.33;;;;;20.78;76.54;99992.44;5052489;28;45625;-82
2023/09/18 07:21:21;;;;;;;;;10.00;8.00;;;;;20.74;75.83;99991.09;5063636;28;46100;-82
2023/09/18 07:23:47;;;;;;;;;11.33;10.00;;;;;20.84;76.05;100005.31;5055984;28;45373;-82
2023/09/18 07:26:12;;;;;;;;;8.67;8.67;;;;;20.89;75.89;100000.25;5055988;28;45285;-81
2023/09/18 07:28:38;;;;;;;;;7.00;7.00;;;;;20.85;75.54;99985.38;5057239;28;45594;-82
2023/09/18 07:31:08;;;;;;;;;7.00;6.33;;;;;20.92;75.38;99997.19;5057238;28;45280;-80
2023/09/18 07:33:34;;;;;;;;;8.33;7.67;;;;;20.99;75.18;100008.19;5056356;28;45531;-82
2023/09/18 07:36:00;;;;;;;;;8.67;8.67;;;;;21.02;74.54;99999.75;5056875;28;45374;-82
2023/09/18 07:38:26;;;;;;;;;13.33;8.33;;;;;20.99;74.58;100009.03;5057213;28;45495;-81
2023/09/18 07:40:51;;;;;;;;;10.33;8.33;;;;;21.00;74.96;100010.72;5056390;28;45975;-80
2023/09/18 07:43:16;;;;;;;;;12.00;11.00;;;;;21.11;74.36;100010.41;5056103;28;45458;-78
2023/09/18 07:45:42;;;;;;;;;8.00;8.00;;;;;21.09;73.63;99998.91;5056040;28;45202;-80
2023/09/18 07:48:08;;;;;;;;;9.33;8.67;;;;;21.24;73.58;100017.19;5056776;28;45623;-83
2023/09/18 07:50:35;;;;;;;;;4.67;4.67;;;;;21.20;73.32;99993.16;5057463;28;46549;-81
2023/09/18 07:53:01;;;;;;;;;5.67;5.67;;;;;21.19;72.84;99977.94;5058022;28;45402;-84
2023/09/18 07:55:27;;;;;;;;;9.67;8.33;;;;;21.48;72.73;100007.25;5058243;28;45436;-82
2023/09/18 07:57:52;;;;;;;;;8.00;8.00;;;;;21.54;71.86;100003.00;5058893;28;45386;-80
2023/09/18 08:00:18;;;;;;;;;7.67;7.67;;;;;21.35;71.44;99962.75;5056170;28;53397;-83
2023/09/18 08:02:44;;;;;;;;;6.00;5.00;;;;;21.63;70.92;100001.97;5057956;28;45523;-78
2023/09/18 08:05:10;;;;;;;;;8.00;7.00;;;;;21.65;70.19;99996.38;5058497;28;45366;-81
2023/09/18 08:07:36;;;;;;;;;7.33;4.33;;;;;21.83;69.27;100018.66;5076556;28;45801;-80
2023/09/18 08:10:08;;;;;;;;;6.33;6.33;;;;;21.73;69.26;99999.06;5060097;28;46408;-81
2023/09/18 08:12:36;;;;;;;;;7.67;6.67;;;;;21.70;68.78;100000.25;5059245;28;45400;-80
2023/09/18 08:15:02;;;;;;;;;7.00;7.00;;;;;21.55;68.60;99976.78;5076079;28;45461;-80
2023/09/18 08:17:28;;;;;;;;;10.50;7.50;;;;;21.78;68.27;100004.81;5058464;28;45594;-81
2023/09/18 08:19:53;;;;;;;;;8.00;7.00;;;;;21.76;68.21;99979.78;5063294;28;45615;-80
2023/09/18 08:22:20;;;;;;;;;8.33;7.33;;;;;21.96;67.92;100007.31;5074940;28;45374;-80
2023/09/18 08:24:48;;;;;;;;;7.00;7.00;;;;;22.12;67.15;100007.28;5077281;28;45370;-77
2023/09/18 08:27:16;;;;;;;;;4.67;4.67;;;;;21.97;67.17;99980.06;5059408;28;45392;-81
2023/09/18 08:29:42;;;;;;;;;6.67;6.67;;;;;22.21;66.39;100011.66;5059938;28;46006;-80
2023/09/18 08:32:07;;;;;;;;;6.75;6.25;;;;;22.13;66.24;100006.25;5058656;28;45310;-81
2023/09/18 08:34:32;;;;;;;;;5.33;5.33;;;;;21.76;67.17;99988.75;5060007;28;45728;-81
2023/09/18 08:36:58;;;;;;;;;8.75;8.75;;;;;21.82;67.14;100010.72;5063170;28;45642;-80
2023/09/18 08:39:23;;;;;;;;;4.00;4.00;;;;;21.82;67.12;100003.44;5080234;28;46193;-80
2023/09/18 08:41:51;;;;;;;;;8.25;7.50;;;;;21.84;66.90;100008.69;5074098;28;45222;-81
2023/09/18 08:44:17;;;;;;;;;7.25;5.75;;;;;22.00;66.65;100008.63;5060187;28;45472;-82
2023/09/18 08:46:43;;;;;;;;;7.00;7.00;;;;;21.92;66.57;99997.84;5060998;28;45407;-83
2023/09/18 08:49:10;;;;;;;;;6.00;6.00;;;;;22.03;66.19;100021.84;5058675;28;47217;-83
2023/09/18 08:51:36;;;;;;;;;8.00;6.00;;;;;22.08;66.50;100014.06;5059362;28;45343;-83
2023/09/18 08:54:04;;;;;;;;;7.00;5.33;;;;;22.12;66.29;100023.53;5060297;28;45504;-81
2023/09/18 08:56:31;;;;;;;;;5.00;5.00;;;;;22.22;65.82;100028.75;5059574;28;45406;-81
2023/09/18 08:58:57;;;;;;;;;4.33;3.67;;;;;22.24;65.67;100016.72;5059459;28;45329;-86
2023/09/18 09:01:22;;;;;;;;;5.75;4.75;;;;;22.30;65.60;100037.69;5059189;28;45450;-85
2023/09/18 09:03:48;;;;;;;;;6.50;6.50;;;;;22.16;65.34;100014.06;5059733;28;45402;-85
2023/09/18 09:06:14;;;;;;;;;5.75;5.75;;;;;22.11;65.50;100002.88;5060501;28;45318;-83
2023/09/18 09:08:39;;;;;;;;;4.00;4.00;;;;;22.13;65.58;100000.00;5063448;28;45390;-81
2023/09/18 09:11:05;;;;;;;;;6.00;6.00;;;;;22.36;64.78;100009.06;5058778;28;45379;-83
2023/09/18 09:13:31;;;;;;;;;9.25;5.50;;;;;22.31;64.59;100004.16;5058665;28;45334;-82
2023/09/18 09:15:58;;;;;;;;;8.00;8.00;;;;;22.49;63.71;100024.75;5058916;28;45550;-78
2023/09/18 09:18:26;;;;;;;;;5.75;5.25;;;;;22.58;63.30;100024.53;5056786;28;45219;-83
2023/09/18 09:20:59;;;;;;;;;3.50;3.50;;;;;22.53;63.49;99999.00;5058594;28;45520;-79
2023/09/18 09:23:27;;;;;;;;;4.75;3.50;;;;;22.69;62.82;100020.59;5073601;28;45465;-79
2023/09/18 09:25:54;;;;;;;;;5.75;4.00;;;;;22.73;62.24;100005.66;5056796;28;45581;-79
2023/09/18 09:28:31;;;;;;;;;4.00;4.00;;;;;22.83;62.49;100011.72;5073164;28;47147;-80
2023/09/18 09:31:03;;;;;;;;;5.50;5.50;;;;;22.97;62.20;100015.53;5056452;28;45288;-79
2023/09/18 09:33:29;;;;;;;;;6.00;5.25;;;;;22.83;61.85;99984.59;5057345;28;45339;-82
2023/09/18 09:35:56;;;;;;;;;7.00;5.50;;;;;23.01;61.51;100007.88;5074067;28;45360;-81
2023/09/18 09:38:28;;;;;;;;;4.75;4.75;;;;;23.04;61.46;100008.34;5058525;28;45471;-84
2023/09/18 09:40:54;;;;;;;;;7.50;4.50;;;;;22.92;61.59;99982.69;5057799;28;45472;-84
2023/09/18 09:43:20;;;;;;;;;6.00;4.25;;;;;23.11;60.75;100019.31;5058387;28;45445;-83
2023/09/18 09:45:46;;;;;;;;;5.25;5.25;;;;;23.13;61.35;100026.25;5060163;28;45429;-80
2023/09/18 09:48:11;;;;;;;;;7.25;5.00;;;;;23.15;59.89;100020.66;5065332;28;45818;-81
2023/09/18 09:50:48;;;;;;;;;8.00;6.00;;;;;23.20;59.86;100023.69;5073853;28;45217;-81
2023/09/18 09:53:14;;;;;;;;;4.75;2.75;;;;;23.14;59.38;100003.53;5069649;28;45266;-81
2023/09/18 09:55:40;;;;;;;;;6.25;6.25;;;;;23.25;59.58;100022.09;5075588;28;45219;-81
2023/09/18 09:58:10;;;;;;;;;5.50;5.00;;;;;23.27;58.87;100026.50;5056702;28;45766;-82
2023/09/18 10:00:49;;;;;;;;;3.50;3.50;;;;;23.16;59.14;100030.47;5057737;28;45303;-83
2023/09/18 10:03:20;;;;;;;;;4.75;4.75;;;;;23.15;59.51;100026.91;5055963;28;45282;-81
2023/09/18 10:05:47;;;;;;;;;5.25;4.25;;;;;23.07;59.23;100015.31;5057289;28;45340;-80
2023/09/18 10:08:17;;;;;;;;;5.75;4.50;;;;;23.02;59.83;100014.97;5057045;28;45323;-80
2023/09/18 10:10:52;;;;;;;;;3.50;3.50;;;;;23.03;59.78;100030.22;5056706;28;45459;-81
2023/09/18 10:13:22;;;;;;;;;6.25;4.75;;;;;23.14;60.04;100021.66;5056873;28;45332;-80
2023/09/18 10:15:50;;;;;;;;;6.50;6.25;;;;;23.27;60.04;100026.50;5035942;28;45498;-82
2023/09/18 10:18:28;;;;;;;;;6.00;6.00;;;;;23.29;59.60;100010.88;5037942;28;46403;-81
2023/09/18 10:21:34;;;;;;;;;4.00;4.00;;;;;23.30;59.81;100024.25;5054893;28;45710;-83
2023/09/18 10:24:15;;;;;;;;;8.75;7.75;;;;;23.44;59.28;100026.19;5045511;28;45731;-83
2023/09/18 10:27:03;;;;;;;;;39.67;34.33;;;;;23.64;59.07;100009.41;5057193;28;45245;-80
2023/09/18 10:29:32;;;;;;;;;10.75;9.75;;;;;24.03;58.09;100029.03;5056592;28;45480;-81
2023/09/18 10:31:58;;;;;;;;;7.75;6.00;;;;;24.21;56.80;100025.09;5057117;28;45315;-82
2023/09/18 10:34:25;;;;;;;;;4.25;4.25;;;;;24.51;56.55;100024.06;5056321;28;45179;-79
2023/09/18 10:36:52;;;;;;;;;6.75;6.75;;;;;24.65;55.68;100036.81;5057007;28;45206;-82
2023/09/18 10:39:24;;;;;;;;;4.00;4.00;;;;;24.70;54.21;100028.91;5036798;28;46092;-82
2023/09/18 10:41:52;;;;;;;;;4.00;4.00;;;;;24.69;54.80;100038.09;5037179;28;45407;-83
2023/09/18 10:44:18;;;;;;;;;8.25;8.25;;;;;25.01;54.10;100027.00;5041500;28;45466;-81
2023/09/18 10:46:48;;;;;;;;;5.75;4.75;;;;;25.28;53.42;100031.66;5058518;28;45287;-82
2023/09/18 10:49:15;;;;;;;;;4.00;3.00;;;;;25.36;52.75;100028.78;5059428;28;46000;-83
2023/09/18 10:51:42;;;;;;;;;3.20;3.20;;;;;25.29;52.98;100034.19;5057717;28;45248;-84
2023/09/18 10:54:15;;;;;;;;;8.75;5.75;;;;;25.07;52.99;100029.78;5058126;28;45360;-84
2023/09/18 10:56:42;;;;;;;;;5.25;5.25;;;;;25.12;52.97;100019.13;5057353;28;45251;-83
2023/09/18 10:59:08;;;;;;;;;5.75;3.75;;;;;25.55;52.44;100027.28;5057830;28;46166;-84
2023/09/18 11:01:37;;;;;;;;;6.00;5.00;;;;;26.06;51.14;100014.28;5058248;28;45438;-82
2023/09/18 11:04:08;;;;;;;;;6.25;6.25;;;;;26.31;50.17;100020.09;5039949;28;45312;-81
2023/09/18 11:06:55;;;;;;;;;5.75;4.75;;;;;26.58;50.41;100028.44;5057008;28;45461;-81
2023/09/18 11:09:22;;;;;;;;;4.75;4.75;;;;;26.57;49.90;100034.94;5072618;28;46625;-82
2023/09/18 11:11:57;;;;;;;;;5.00;4.80;;;;;26.79;49.49;100022.81;5055939;28;45424;-82
2023/09/18 11:14:43;;;;;;;;;6.25;4.75;;;;;26.96;49.24;100031.50;5064352;28;45263;-81
2023/09/18 11:17:38;;;;;;;;;4.25;4.25;;;;;27.21;48.04;100018.13;5051733;28;45479;-80
2023/09/18 11:20:15;;;;;;;;;4.20;4.20;;;;;27.41;47.28;100024.44;5049250;27;46119;-82
2023/09/18 11:22:46;;;;;;;;;4.80;4.80;;;;;27.45;46.49;100036.63;5067602;28;45393;-83
2023/09/18 11:25:31;;;;;;;;;4.80;3.60;;;;;27.35;47.15;100025.31;5077160;27;45393;-81
2023/09/18 11:27:57;;;;;;;;;3.25;3.25;;;;;27.75;46.11;100017.13;5056544;28;45444;-82